Woods, Kentucky
Current Conditions -  °F | °C
As of 5:55 AM on Sunday 23 Nov 2014 (Local Time) from KI35 Reporting Station
Clear Clear  
Wind Chill: 50°   Ceiling: Unl
Heat Index: 50°   Visibility: 10mi
Dew Point: 34°   Wind: 8mph
Humidity: 54%   Direction: 80°E
Pressure: 30.08"   Gusts: NA
Location:  36.8509°N, 83.1611°W
Report Text: KI35 231055Z AUTO 08007KT 030V120 10SM CLR 10/01 A3008 RMK AO1
Loading
Personal Weather Stations






























Interactive Weather Map New forecast layout! Learn more

10-Day Weather Forecast

Advertisements
Track Severe Weather on mobile